Time;durP1;ratioP1;P1;durP2;ratioP2;P2;SDS_P1;SDS_P2;PMS_P1;PMS_P2;Temp;Humidity;BMP_temperature;BMP_pressure;BME280_temperature;BME280_humidity;BME280_pressure;Samples;Min_cycle;Max_cycle;Signal;HPM_P1;HPM_P2
2022/05/03 00:00:59;;;;;;;3.37;1.40;;;6.30;73.20;;;;;;5076107;28;20305;-77
2022/05/03 00:03:30;;;;;;;2.47;1.30;;;6.20;72.40;;;;;;5077970;28;20229;-77
2022/05/03 00:06:02;;;;;;;1.60;1.30;;;6.20;72.90;;;;;;5079264;28;20260;-77
2022/05/03 00:08:36;;;;;;;1.40;1.20;;;6.10;73.30;;;;;;5074783;28;20245;-77
2022/05/03 00:11:10;;;;;;;1.90;1.47;;;6.10;73.90;;;;;;5074262;28;20227;-77
2022/05/03 00:13:43;;;;;;;1.63;1.40;;;6.10;74.60;;;;;;5077992;28;20999;-77
2022/05/03 00:16:13;;;;;;;3.20;1.60;;;6.00;74.60;;;;;;5078468;28;20310;-77
2022/05/03 00:18:40;;;;;;;1.73;1.30;;;5.90;74.30;;;;;;5076410;28;20235;-77
2022/05/03 00:21:10;;;;;;;2.43;1.40;;;5.90;74.40;;;;;;5074546;28;20226;-77
2022/05/03 00:23:37;;;;;;;1.70;1.30;;;5.80;75.00;;;;;;5079237;28;20246;-75
2022/05/03 00:26:04;;;;;;;5.07;1.50;;;5.80;75.40;;;;;;5072452;28;20623;-76
2022/05/03 00:28:31;;;;;;;3.50;1.47;;;5.80;76.10;;;;;;5077532;28;20231;-77
2022/05/03 00:30:59;;;;;;;2.20;1.70;;;5.70;76.40;;;;;;5077253;28;20226;-77
2022/05/03 00:33:27;;;;;;;2.83;1.50;;;5.70;77.00;;;;;;5079630;28;20718;-78
2022/05/03 00:35:53;;;;;;;2.40;1.40;;;5.60;77.00;;;;;;5077696;28;20714;-78
2022/05/03 00:38:21;;;;;;;2.47;1.30;;;5.60;77.00;;;;;;5078933;28;20947;-78
2022/05/03 00:40:54;;;;;;;1.60;1.50;;;5.60;77.10;;;;;;5079901;28;20863;-78
2022/05/03 00:43:24;;;;;;;2.90;1.30;;;5.50;77.00;;;;;;5081927;28;20237;-78
2022/05/03 00:45:55;;;;;;;2.50;1.30;;;5.50;77.30;;;;;;5080913;28;20821;-78
2022/05/03 00:48:40;;;;;;;2.00;1.23;;;5.40;77.30;;;;;;5080291;28;20230;-78
2022/05/03 00:51:13;;;;;;;1.50;1.30;;;5.40;77.00;;;;;;5074262;28;20245;-79
2022/05/03 00:53:53;;;;;;;2.00;1.53;;;5.40;77.10;;;;;;5083072;28;20236;-79
2022/05/03 00:56:34;;;;;;;3.63;1.63;;;5.30;77.70;;;;;;5081198;28;20250;-78
2022/05/03 00:59:09;;;;;;;2.13;1.20;;;5.30;78.20;;;;;;5083982;28;20225;-79
2022/05/03 01:01:45;;;;;;;2.70;1.50;;;5.20;78.20;;;;;;5082768;28;20656;-78
2022/05/03 01:04:26;;;;;;;3.47;1.53;;;5.20;78.40;;;;;;5077136;28;20344;-78
2022/05/03 01:07:02;;;;;;;5.47;1.60;;;5.20;78.70;;;;;;5077387;28;20253;-78
2022/05/03 01:09:37;;;;;;;1.87;1.43;;;5.10;79.50;;;;;;5076456;28;20238;-79
2022/05/03 01:12:26;;;;;;;3.27;1.37;;;5.10;80.70;;;;;;5077215;28;20238;-79
2022/05/03 01:15:08;;;;;;;3.17;1.43;;;5.10;81.30;;;;;;5078452;28;20627;-79
2022/05/03 01:17:43;;;;;;;1.30;1.20;;;5.00;81.10;;;;;;5071646;28;21228;-78
2022/05/03 01:20:14;;;;;;;2.47;1.30;;;5.00;80.80;;;;;;5077958;28;20312;-78
2022/05/03 01:23:23;;;;;;;2.63;1.50;;;5.00;80.60;;;;;;5080337;28;20259;-78
2022/05/03 01:26:09;;;;;;;3.40;1.57;;;4.90;81.30;;;;;;5067789;28;20250;-79
2022/05/03 01:28:55;;;;;;;3.70;1.50;;;4.90;81.40;;;;;;5078129;28;20222;-77
2022/05/03 01:31:23;;;;;;;2.00;1.50;;;4.90;83.10;;;;;;5072831;28;20217;-77
2022/05/03 01:33:51;;;;;;;1.80;1.40;;;4.80;82.90;;;;;;5076111;28;20288;-77
2022/05/03 01:36:31;;;;;;;4.97;1.87;;;4.80;83.60;;;;;;5078210;28;20286;-79
2022/05/03 01:39:02;;;;;;;2.00;1.43;;;4.80;85.30;;;;;;5076888;28;20230;-78
2022/05/03 01:41:37;;;;;;;1.97;1.57;;;4.80;85.50;;;;;;5078855;28;20714;-78
2022/05/03 01:44:25;;;;;;;2.00;1.43;;;4.70;86.30;;;;;;5080613;28;20233;-78
2022/05/03 01:46:56;;;;;;;5.97;2.00;;;4.70;86.30;;;;;;5082959;28;21120;-78
2022/05/03 01:52:43;;;;;;;2.20;1.67;;;4.60;86.40;;;;;;5037381;28;20236;-77
2022/05/03 01:55:28;;;;;;;3.20;1.93;;;4.60;87.40;;;;;;5072116;28;20321;-78
2022/05/03 01:58:03;;;;;;;2.20;1.80;;;4.50;87.90;;;;;;5080228;28;20617;-78
2022/05/03 02:00:36;;;;;;;2.27;1.70;;;4.50;86.30;;;;;;5079708;28;20234;-77
2022/05/03 02:03:08;;;;;;;4.13;1.60;;;4.50;85.80;;;;;;5077261;28;20218;-77
2022/05/03 02:05:54;;;;;;;7.03;1.77;;;4.50;85.70;;;;;;5078078;28;20233;-77
2022/05/03 02:08:22;;;;;;;3.80;1.93;;;4.50;87.20;;;;;;5075684;28;20298;-78
2022/05/03 02:11:34;;;;;;;2.90;1.90;;;4.40;86.90;;;;;;5079374;28;20250;-78
2022/05/03 02:17:01;;;;;;;3.13;2.00;;;4.40;89.20;;;;;;5082996;28;20757;-78
2022/05/03 02:19:44;;;;;;;2.40;1.90;;;4.40;90.20;;;;;;5083428;28;20224;-78
2022/05/03 02:22:32;;;;;;;2.90;1.97;;;4.30;90.30;;;;;;5083316;28;20270;-78
2022/05/03 02:25:04;;;;;;;3.27;2.37;;;4.30;90.40;;;;;;5079331;28;20223;-78
2022/05/03 02:27:32;;;;;;;2.57;1.90;;;4.30;90.00;;;;;;5079830;28;20234;-77
2022/05/03 02:30:01;;;;;;;2.70;1.93;;;4.30;89.70;;;;;;5081141;28;20240;-78
2022/05/03 02:32:37;;;;;;;3.90;2.20;;;4.30;89.60;;;;;;5071333;28;20775;-77
2022/05/03 02:35:05;;;;;;;2.77;2.40;;;4.20;90.20;;;;;;5078365;28;20228;-77
2022/05/03 02:37:37;;;;;;;3.20;2.23;;;4.20;90.20;;;;;;5072708;28;20252;-76
2022/05/03 02:40:08;;;;;;;3.20;2.40;;;4.20;91.00;;;;;;5075906;28;20229;-78
2022/05/03 02:42:35;;;;;;;2.37;2.13;;;4.20;91.60;;;;;;5073829;28;20234;-77
2022/05/03 02:45:04;;;;;;;4.27;2.10;;;4.20;90.90;;;;;;5073968;28;20270;-77
2022/05/03 02:47:38;;;;;;;2.80;2.20;;;4.10;90.80;;;;;;5080614;28;20250;-76
2022/05/03 02:50:09;;;;;;;2.57;2.10;;;4.10;91.50;;;;;;5072544;28;20237;-77
2022/05/03 02:52:57;;;;;;;2.90;2.30;;;4.10;91.50;;;;;;5075410;28;20309;-77
2022/05/03 02:55:36;;;;;;;2.67;2.07;;;4.10;92.30;;;;;;5077730;28;20246;-77
2022/05/03 02:58:07;;;;;;;5.37;2.30;;;4.10;92.30;;;;;;5076867;28;20240;-77
2022/05/03 03:04:02;;;;;;;3.20;2.47;;;4.10;92.50;;;;;;5003993;28;20727;-77
2022/05/03 03:06:32;;;;;;;3.00;2.33;;;4.00;92.80;;;;;;5077487;28;20233;-77
2022/05/03 03:09:01;;;;;;;4.70;2.30;;;4.00;92.30;;;;;;5078999;28;20614;-78
2022/05/03 03:11:41;;;;;;;3.50;2.47;;;4.00;92.10;;;;;;5077733;28;20237;-78
2022/05/03 03:14:12;;;;;;;3.47;2.57;;;3.90;92.00;;;;;;5071906;28;20218;-79
2022/05/03 03:16:44;;;;;;;3.27;2.70;;;3.90;92.30;;;;;;5070701;28;20229;-77
2022/05/03 03:19:34;;;;;;;3.67;2.53;;;3.90;92.90;;;;;;5072516;28;20224;-78
2022/05/03 03:22:02;;;;;;;2.77;2.40;;;3.80;93.00;;;;;;5085699;28;20223;-79
2022/05/03 03:24:30;;;;;;;4.10;2.43;;;3.80;92.60;;;;;;5084569;28;20324;-78
2022/05/03 03:27:00;;;;;;;5.10;3.07;;;3.80;92.80;;;;;;5080543;28;20284;-77
2022/05/03 03:29:28;;;;;;;3.83;2.80;;;3.80;92.80;;;;;;5083007;28;20632;-78
2022/05/03 03:31:58;;;;;;;4.57;2.93;;;3.80;92.90;;;;;;5080717;28;20286;-78
2022/05/03 03:34:28;;;;;;;4.70;2.80;;;3.80;93.40;;;;;;5080634;28;20223;-79
2022/05/03 03:37:01;;;;;;;5.07;3.23;;;3.80;93.60;;;;;;5083643;28;20832;-78
2022/05/03 03:39:30;;;;;;;4.90;3.83;;;3.80;93.60;;;;;;5082325;28;20278;-78
2022/05/03 03:41:57;;;;;;;5.63;3.67;;;3.80;94.00;;;;;;5086147;28;20237;-77
2022/05/03 03:44:25;;;;;;;5.67;3.90;;;3.80;94.20;;;;;;5081693;28;20240;-77
2022/05/03 03:46:51;;;;;;;4.30;3.03;;;3.80;94.10;;;;;;5081255;28;20258;-77
2022/05/03 03:49:18;;;;;;;4.13;3.10;;;3.80;93.70;;;;;;5085743;28;20237;-77
2022/05/03 03:51:46;;;;;;;3.33;2.63;;;3.80;93.60;;;;;;5079811;28;20302;-76
2022/05/03 03:54:14;;;;;;;3.97;3.20;;;3.80;93.80;;;;;;5076809;28;20239;-77
2022/05/03 03:56:41;;;;;;;4.23;3.37;;;3.80;93.60;;;;;;5083089;28;20228;-78
2022/05/03 03:59:08;;;;;;;4.33;3.67;;;3.80;94.00;;;;;;5078705;28;20221;-77
2022/05/03 04:01:35;;;;;;;5.00;3.63;;;3.80;94.10;;;;;;5085732;28;20694;-77
2022/05/03 04:04:04;;;;;;;4.93;3.17;;;3.80;94.40;;;;;;5083823;28;20233;-78
2022/05/03 04:06:31;;;;;;;9.17;3.07;;;3.90;94.90;;;;;;5085022;28;20234;-78
2022/05/03 04:08:59;;;;;;;3.73;3.10;;;3.90;94.80;;;;;;5099328;28;20518;-77
2022/05/03 04:11:26;;;;;;;4.63;3.30;;;4.00;95.00;;;;;;5079818;28;20233;-78
2022/05/03 04:13:54;;;;;;;4.30;3.30;;;4.00;95.10;;;;;;5082289;28;21072;-77
2022/05/03 04:16:20;;;;;;;4.77;3.53;;;4.10;95.30;;;;;;5080090;28;20237;-78
2022/05/03 04:18:47;;;;;;;7.00;4.40;;;4.10;95.40;;;;;;5077882;28;20289;-77
2022/05/03 04:21:15;;;;;;;7.10;4.10;;;4.20;95.40;;;;;;5085450;28;20555;-79
2022/05/03 04:23:42;;;;;;;5.67;3.93;;;4.20;95.60;;;;;;5076581;28;20303;-77
2022/05/03 04:26:10;;;;;;;4.77;3.70;;;4.20;95.70;;;;;;5084650;28;20219;-79
2022/05/03 04:28:37;;;;;;;5.00;3.30;;;4.30;96.00;;;;;;5081092;28;20275;-77
2022/05/03 04:31:04;;;;;;;4.47;3.53;;;4.40;96.00;;;;;;5074468;28;20369;-75
2022/05/03 04:33:31;;;;;;;5.37;4.07;;;4.40;96.20;;;;;;5072156;28;20237;-76
2022/05/03 04:35:58;;;;;;;6.97;4.63;;;4.50;96.20;;;;;;5077730;28;20229;-76
2022/05/03 04:38:25;;;;;;;5.10;4.10;;;4.60;96.30;;;;;;5073761;28;20962;-76
2022/05/03 04:40:58;;;;;;;10.90;5.27;;;4.70;96.40;;;;;;5075891;28;20620;-77
2022/05/03 04:43:26;;;;;;;5.40;4.00;;;4.80;96.80;;;;;;5077171;28;20230;-77
2022/05/03 04:45:53;;;;;;;5.57;4.00;;;5.00;96.70;;;;;;5078619;28;20227;-77
2022/05/03 04:48:20;;;;;;;7.33;4.80;;;5.10;96.60;;;;;;5079867;28;20306;-76
2022/05/03 04:50:47;;;;;;;7.27;5.40;;;5.20;96.60;;;;;;5082182;28;20232;-76
2022/05/03 04:53:16;;;;;;;6.77;5.07;;;5.40;96.80;;;;;;5072245;28;20341;-77
2022/05/03 04:55:43;;;;;;;7.37;5.60;;;5.50;97.00;;;;;;5076624;28;20219;-77
2022/05/03 04:58:11;;;;;;;6.63;5.10;;;5.70;97.10;;;;;;5078741;28;20236;-77
2022/05/03 05:00:39;;;;;;;8.67;6.23;;;5.90;97.10;;;;;;5077174;28;20223;-78
2022/05/03 05:03:06;;;;;;;8.00;5.87;;;6.10;97.10;;;;;;5077782;28;20218;-76
2022/05/03 05:05:33;;;;;;;7.70;5.63;;;6.20;97.10;;;;;;5077867;28;20221;-78
2022/05/03 05:08:03;;;;;;;8.83;6.13;;;6.40;97.20;;;;;;5082323;28;20222;-77
2022/05/03 05:10:32;;;;;;;8.67;5.50;;;6.50;97.10;;;;;;5071829;28;20273;-77
2022/05/03 05:12:59;;;;;;;7.30;5.50;;;6.70;96.90;;;;;;5076801;28;20218;-75
2022/05/03 05:15:26;;;;;;;9.20;6.17;;;6.80;97.20;;;;;;5070214;28;20924;-76
2022/05/03 05:17:56;;;;;;;8.93;6.40;;;7.00;97.20;;;;;;5076130;28;20230;-76
2022/05/03 05:20:24;;;;;;;7.60;5.97;;;7.10;97.40;;;;;;5073004;28;20317;-74
2022/05/03 05:22:50;;;;;;;9.70;6.40;;;7.20;97.10;;;;;;5091920;28;20221;-75
2022/05/03 05:25:17;;;;;;;10.43;6.60;;;7.30;97.20;;;;;;5091330;28;20226;-76
2022/05/03 05:27:44;;;;;;;8.27;5.83;;;7.40;97.10;;;;;;5077133;28;20223;-75
2022/05/03 05:30:12;;;;;;;9.17;6.90;;;7.50;97.10;;;;;;5080225;28;20236;-76
2022/05/03 05:32:39;;;;;;;10.90;7.20;;;7.60;97.30;;;;;;5078931;28;20227;-76
2022/05/03 05:35:08;;;;;;;10.43;7.33;;;7.60;97.20;;;;;;5079818;28;20771;-76
2022/05/03 05:37:35;;;;;;;9.20;6.87;;;7.80;97.40;;;;;;5078030;28;20835;-75
2022/05/03 05:40:01;;;;;;;9.30;6.90;;;7.80;97.20;;;;;;5083600;28;20379;-76
2022/05/03 05:42:28;;;;;;;10.00;7.40;;;8.00;97.40;;;;;;5082249;28;20249;-77
2022/05/03 05:44:55;;;;;;;10.90;8.03;;;8.10;97.60;;;;;;5078823;28;20507;-76
2022/05/03 05:47:22;;;;;;;10.73;8.77;;;8.30;97.70;;;;;;5080055;28;20313;-77
2022/05/03 05:49:49;;;;;;;10.00;7.90;;;8.40;97.80;;;;;;5081696;28;20231;-76
2022/05/03 05:55:02;;;;;;;12.20;8.53;;;8.70;97.80;;;;;;5074622;28;20716;-77
2022/05/03 05:57:28;;;;;;;11.60;8.33;;;8.90;97.50;;;;;;5083164;28;20433;-76
2022/05/03 05:59:55;;;;;;;10.00;7.77;;;9.00;97.20;;;;;;5080062;28;20817;-76
2022/05/03 06:02:22;;;;;;;10.37;7.87;;;9.10;97.10;;;;;;5078264;28;20225;-77
2022/05/03 06:04:48;;;;;;;10.70;7.70;;;9.20;97.00;;;;;;5079515;28;20234;-76
2022/05/03 06:07:16;;;;;;;10.33;7.73;;;9.30;96.80;;;;;;5078090;28;20707;-75
2022/05/03 06:09:44;;;;;;;11.63;8.17;;;9.40;96.80;;;;;;5080257;28;20237;-76
2022/05/03 06:12:11;;;;;;;9.60;8.30;;;9.50;96.60;;;;;;5082106;28;20227;-76
2022/05/03 06:14:40;;;;;;;12.37;8.80;;;9.50;96.50;;;;;;5075997;28;20330;-77
2022/05/03 06:17:07;;;;;;;10.53;8.77;;;9.60;96.40;;;;;;5073640;28;20229;-75
2022/05/03 06:19:34;;;;;;;15.23;9.70;;;9.60;96.30;;;;;;5077384;28;20231;-76
2022/05/03 06:22:00;;;;;;;12.83;10.20;;;9.60;96.30;;;;;;5079550;28;20310;-76
2022/05/03 06:24:29;;;;;;;13.90;9.63;;;9.60;96.50;;;;;;5077775;28;20703;-76
2022/05/03 06:26:56;;;;;;;13.10;10.37;;;9.60;96.70;;;;;;5081040;28;20582;-76
2022/05/03 06:29:22;;;;;;;16.43;10.17;;;9.60;96.60;;;;;;5078591;28;20322;-76
2022/05/03 06:31:49;;;;;;;13.23;10.33;;;9.60;96.70;;;;;;5074680;28;20227;-76
2022/05/03 06:34:16;;;;;;;14.63;10.53;;;9.60;96.80;;;;;;5076141;28;20647;-77
2022/05/03 06:36:42;;;;;;;13.13;10.57;;;9.60;96.80;;;;;;5077813;28;20237;-75
2022/05/03 06:39:09;;;;;;;14.27;10.83;;;9.60;97.00;;;;;;5081431;28;20304;-76
2022/05/03 06:41:37;;;;;;;15.80;11.47;;;9.60;97.10;;;;;;5079517;28;20322;-77
2022/05/03 06:44:06;;;;;;;17.07;10.77;;;9.50;97.20;;;;;;5077976;28;20306;-76
2022/05/03 06:46:32;;;;;;;13.77;11.37;;;9.60;97.30;;;;;;5072918;28;20904;-76
2022/05/03 06:48:59;;;;;;;16.33;11.43;;;9.60;97.30;;;;;;5078829;28;20228;-76
2022/05/03 06:51:27;;;;;;;17.63;11.77;;;9.60;97.20;;;;;;5074068;28;20669;-77
2022/05/03 06:53:54;;;;;;;15.27;10.93;;;9.60;97.10;;;;;;5072505;28;20222;-76
2022/05/03 06:56:21;;;;;;;18.30;11.53;;;9.60;97.40;;;;;;5075677;28;20306;-77
2022/05/03 06:58:49;;;;;;;16.80;12.30;;;9.60;97.50;;;;;;5069902;28;20226;-76
2022/05/03 07:01:16;;;;;;;17.47;11.70;;;9.60;97.40;;;;;;5072699;28;20227;-75
2022/05/03 07:03:43;;;;;;;15.70;11.13;;;9.70;97.40;;;;;;5067815;28;20862;-76
2022/05/03 07:06:11;;;;;;;24.40;12.60;;;9.70;97.30;;;;;;5076472;28;20681;-76
2022/05/03 07:08:38;;;;;;;17.90;13.63;;;9.70;97.30;;;;;;5078333;28;20219;-76
2022/05/03 07:11:05;;;;;;;20.47;12.63;;;9.80;97.30;;;;;;5075692;28;20538;-75
2022/05/03 07:13:32;;;;;;;17.33;12.33;;;9.80;97.30;;;;;;5076497;28;20306;-75
2022/05/03 07:16:00;;;;;;;17.43;11.87;;;9.80;97.40;;;;;;5077753;28;20469;-76
2022/05/03 07:23:56;;;;;;;14.20;10.47;;;10.00;96.90;;;;;;5073895;28;20233;-75
2022/05/03 07:26:23;;;;;;;16.63;10.73;;;10.00;96.90;;;;;;5075942;28;20227;-75
2022/05/03 07:28:49;;;;;;;16.03;11.37;;;9.90;96.90;;;;;;5073258;28;20235;-76
2022/05/03 07:31:18;;;;;;;21.00;11.57;;;10.00;97.20;;;;;;5068532;28;20291;-76
2022/05/03 07:33:44;;;;;;;19.43;12.23;;;10.00;97.40;;;;;;5075563;28;20560;-76
2022/05/03 07:36:11;;;;;;;18.47;12.67;;;10.10;97.30;;;;;;5071430;28;20234;-76
2022/05/03 07:38:39;;;;;;;17.17;11.10;;;10.10;97.20;;;;;;5074513;28;20254;-74
2022/05/03 07:41:06;;;;;;;19.90;13.23;;;10.20;97.20;;;;;;5080602;28;20237;-76
2022/05/03 07:43:33;;;;;;;18.27;12.10;;;10.20;97.30;;;;;;5073748;28;21027;-76
2022/05/03 07:46:00;;;;;;;16.60;12.10;;;10.30;97.40;;;;;;5079312;28;20975;-74
2022/05/03 07:48:28;;;;;;;16.27;11.90;;;10.30;97.40;;;;;;5080086;28;20278;-76
2022/05/03 07:50:55;;;;;;;23.77;12.77;;;10.40;97.60;;;;;;5079920;28;20230;-76
2022/05/03 07:53:21;;;;;;;19.53;13.13;;;10.50;97.40;;;;;;5078802;28;20315;-75
2022/05/03 07:55:49;;;;;;;19.10;12.53;;;10.50;97.20;;;;;;5080040;28;20229;-76
2022/05/03 07:58:18;;;;;;;19.07;11.43;;;10.60;97.20;;;;;;5069797;28;20638;-76
2022/05/03 08:00:45;;;;;;;16.27;12.33;;;10.60;97.10;;;;;;5076054;28;20230;-76
2022/05/03 08:03:13;;;;;;;18.77;11.80;;;10.70;97.10;;;;;;5072170;28;20721;-75
2022/05/03 08:05:41;;;;;;;16.23;11.03;;;10.80;97.00;;;;;;5072872;28;20230;-75
2022/05/03 08:08:08;;;;;;;16.20;10.70;;;10.90;96.90;;;;;;5078566;28;20721;-75
2022/05/03 08:10:34;;;;;;;16.10;10.37;;;10.90;96.80;;;;;;5073988;28;20241;-76
2022/05/03 08:13:01;;;;;;;16.40;10.10;;;11.00;96.50;;;;;;5077637;28;20221;-77
2022/05/03 08:15:28;;;;;;;13.50;9.93;;;11.10;96.70;;;;;;5078376;28;20790;-76
2022/05/03 08:17:54;;;;;;;13.87;9.40;;;11.10;96.20;;;;;;5080121;28;20221;-75
2022/05/03 08:20:21;;;;;;;16.37;10.60;;;11.10;96.10;;;;;;5074281;28;20237;-76
2022/05/03 08:22:49;;;;;;;16.10;9.57;;;11.20;96.00;;;;;;5079702;28;20238;-76
2022/05/03 08:25:16;;;;;;;14.10;9.00;;;11.20;96.00;;;;;;5075047;28;20224;-76
2022/05/03 08:27:43;;;;;;;17.03;8.90;;;11.20;95.90;;;;;;5082100;28;20237;-76
2022/05/03 08:30:10;;;;;;;9.90;8.17;;;11.20;95.70;;;;;;5074397;28;20236;-76
2022/05/03 08:32:37;;;;;;;12.70;8.60;;;11.10;95.80;;;;;;5080459;28;20219;-76
2022/05/03 08:35:05;;;;;;;13.80;8.80;;;11.10;95.90;;;;;;5081148;28;20576;-76
2022/05/03 08:43:04;;;;;;;12.23;8.83;;;11.20;96.40;;;;;;5078674;28;20225;-76
2022/05/03 08:45:32;;;;;;;12.47;8.83;;;11.20;96.10;;;;;;5077543;28;20235;-75
2022/05/03 08:48:01;;;;;;;13.87;8.27;;;11.20;96.20;;;;;;5080007;28;20236;-76
2022/05/03 08:50:29;;;;;;;16.43;9.03;;;11.30;96.10;;;;;;5083188;28;20215;-76
2022/05/03 08:52:59;;;;;;;15.77;9.80;;;11.30;95.90;;;;;;5080928;28;20260;-76
2022/05/03 08:55:28;;;;;;;15.30;9.60;;;11.40;96.00;;;;;;5076739;28;20723;-76
2022/05/03 08:57:55;;;;;;;11.43;8.20;;;11.50;96.00;;;;;;5077084;28;20581;-77
2022/05/03 09:00:22;;;;;;;13.27;8.40;;;11.60;95.90;;;;;;5077246;28;20231;-76
2022/05/03 09:02:51;;;;;;;14.77;10.00;;;11.70;95.60;;;;;;5080606;28;20240;-76
2022/05/03 09:05:19;;;;;;;14.13;9.17;;;11.80;95.40;;;;;;5082183;28;20478;-76
2022/05/03 09:07:48;;;;;;;14.43;9.57;;;12.00;95.30;;;;;;5077463;28;20244;-76
2022/05/03 09:10:18;;;;;;;11.97;8.23;;;12.10;95.10;;;;;;5078710;28;20424;-77
2022/05/03 09:12:47;;;;;;;13.70;8.03;;;12.20;94.80;;;;;;5081191;28;20233;-76
2022/05/03 09:15:14;;;;;;;13.90;8.33;;;12.40;94.70;;;;;;5077602;28;20290;-76
2022/05/03 09:17:42;;;;;;;10.77;6.77;;;12.50;94.50;;;;;;5078947;28;20243;-77
2022/05/03 09:25:47;;;;;;;11.00;5.77;;;13.20;93.50;;;;;;5095508;28;20233;-76
2022/05/03 09:28:15;;;;;;;10.40;6.47;;;13.40;92.90;;;;;;5080656;28;20273;-76
2022/05/03 09:30:50;;;;;;;8.30;5.20;;;13.50;92.30;;;;;;5083180;28;20221;-76
2022/05/03 09:33:18;;;;;;;9.67;5.63;;;13.50;91.40;;;;;;5076759;28;20223;-76
2022/05/03 09:35:46;;;;;;;8.80;5.40;;;13.60;91.50;;;;;;5080433;28;20224;-76
2022/05/03 09:38:12;;;;;;;9.33;5.03;;;13.60;91.70;;;;;;5080107;28;20231;-77
2022/05/03 09:40:41;;;;;;;8.67;4.67;;;13.80;91.80;;;;;;5078162;28;20249;-76
2022/05/03 09:43:08;;;;;;;5.93;4.00;;;14.10;91.40;;;;;;5076545;28;20722;-77
2022/05/03 09:45:37;;;;;;;6.33;3.90;;;14.30;90.70;;;;;;5077450;28;20839;-77
2022/05/03 09:48:05;;;;;;;8.70;3.70;;;14.60;89.70;;;;;;5073134;28;20240;-77
2022/05/03 09:50:39;;;;;;;8.70;3.90;;;14.80;89.20;;;;;;5073243;28;20657;-76
2022/05/03 09:53:16;;;;;;;8.43;3.90;;;15.00;87.80;;;;;;5076067;28;20283;-77
2022/05/03 09:55:44;;;;;;;8.37;4.30;;;15.10;87.80;;;;;;5075444;28;20234;-76
2022/05/03 09:58:12;;;;;;;6.33;4.37;;;15.20;86.50;;;;;;5076751;28;20223;-76
2022/05/03 10:00:42;;;;;;;10.27;3.87;;;15.20;85.80;;;;;;5078129;28;20295;-76
2022/05/03 10:03:10;;;;;;;7.57;3.97;;;15.20;84.20;;;;;;5076086;28;20241;-76
2022/05/03 10:05:38;;;;;;;6.60;4.07;;;15.20;83.90;;;;;;5075749;28;20229;-75
2022/05/03 10:08:07;;;;;;;8.43;4.00;;;15.20;83.50;;;;;;5076511;28;20226;-76
2022/05/03 10:10:34;;;;;;;7.90;3.53;;;15.10;83.60;;;;;;5075601;28;20238;-76
2022/05/03 10:13:01;;;;;;;9.00;4.37;;;15.20;83.60;;;;;;5080354;28;20234;-77
2022/05/03 10:21:13;;;;;;;8.75;3.95;;;16.30;83.60;;;;;;5075829;28;20256;-76
2022/05/03 10:23:40;;;;;;;6.00;3.53;;;16.90;82.80;;;;;;5076118;28;20858;-76
2022/05/03 10:26:08;;;;;;;6.93;3.13;;;17.40;80.70;;;;;;5073640;28;20225;-77
2022/05/03 10:29:05;;;;;;;5.10;2.90;;;17.80;79.00;;;;;;5072886;28;20250;-77
2022/05/03 10:31:32;;;;;;;6.47;2.60;;;18.10;75.10;;;;;;5063480;28;20282;-76
2022/05/03 10:34:03;;;;;;;6.43;2.42;;;18.40;75.40;;;;;;5079722;28;20222;-76
2022/05/03 10:36:45;;;;;;;4.15;2.20;;;18.50;74.30;;;;;;5075877;28;20469;-77
2022/05/03 10:39:23;;;;;;;5.60;2.60;;;18.60;72.00;;;;;;5072587;28;20234;-77
2022/05/03 10:41:58;;;;;;;9.00;2.97;;;18.60;71.20;;;;;;5071892;28;20543;-77
2022/05/03 10:44:45;;;;;;;5.18;2.30;;;18.60;71.30;;;;;;5071502;28;20591;-76
2022/05/03 10:47:13;;;;;;;5.20;2.58;;;18.60;69.90;;;;;;5073711;28;20292;-77
2022/05/03 10:50:21;;;;;;;9.90;2.50;;;18.70;70.00;;;;;;5071045;28;20228;-77
2022/05/03 10:53:18;;;;;;;5.28;2.17;;;18.70;70.20;;;;;;5070276;28;20307;-76
2022/05/03 10:56:09;;;;;;;5.55;2.08;;;18.60;68.70;;;;;;5076545;28;20970;-77
2022/05/03 10:58:37;;;;;;;4.60;1.67;;;18.40;68.70;;;;;;5077173;28;20248;-77
2022/05/03 11:01:06;;;;;;;3.83;1.77;;;18.30;68.60;;;;;;5075462;28;20595;-76
2022/05/03 11:03:34;;;;;;;5.22;1.80;;;18.20;68.70;;;;;;5077801;28;20608;-76
2022/05/03 11:06:34;;;;;;;3.90;2.00;;;18.20;68.20;;;;;;5078741;28;20346;-77
2022/05/03 11:09:10;;;;;;;3.20;1.67;;;18.30;68.80;;;;;;5068933;28;20218;-76
2022/05/03 11:12:01;;;;;;;4.78;2.03;;;18.40;67.60;;;;;;5075325;28;20219;-77
2022/05/03 11:14:50;;;;;;;4.13;1.73;;;18.50;67.30;;;;;;5074147;28;20240;-77
2022/05/03 11:17:18;;;;;;;3.03;1.63;;;18.50;66.90;;;;;;5072601;28;20714;-78
2022/05/03 11:19:59;;;;;;;2.58;1.38;;;18.40;66.80;;;;;;5076340;28;20219;-76
2022/05/03 11:22:33;;;;;;;3.60;1.50;;;18.40;66.30;;;;;;5073523;28;20219;-77
2022/05/03 11:25:07;;;;;;;5.78;2.08;;;18.50;65.90;;;;;;5070937;28;20227;-77
2022/05/03 11:27:34;;;;;;;3.63;1.50;;;18.70;64.90;;;;;;5076224;28;20694;-76
2022/05/03 11:30:04;;;;;;;3.63;1.70;;;18.70;65.40;;;;;;5078425;28;20309;-77
2022/05/03 11:32:37;;;;;;;3.88;1.83;;;18.60;64.30;;;;;;5078153;28;20238;-76
2022/05/03 11:35:10;;;;;;;2.03;1.50;;;18.60;65.40;;;;;;5072299;28;20223;-77
2022/05/03 11:37:45;;;;;;;4.35;1.73;;;18.70;66.00;;;;;;5078060;28;20230;-76
2022/05/03 11:40:13;;;;;;;5.38;1.50;;;18.90;65.10;;;;;;5075825;28;20235;-77
2022/05/03 11:42:42;;;;;;;4.43;1.40;;;19.00;64.50;;;;;;5082961;28;20235;-76
2022/05/03 11:45:10;;;;;;;4.45;2.25;;;19.10;63.90;;;;;;5079025;28;21001;-77
2022/05/03 11:47:43;;;;;;;4.93;1.58;;;19.00;62.70;;;;;;5077762;28;20756;-76
2022/05/03 11:50:13;;;;;;;6.15;2.25;;;18.80;61.90;;;;;;5080022;28;20222;-77
2022/05/03 11:58:11;;;;;;;4.15;1.88;;;18.00;62.80;;;;;;5077971;28;20226;-77
2022/05/03 12:00:48;;;;;;;3.83;1.70;;;17.80;63.10;;;;;;5085716;28;20253;-77
2022/05/03 12:03:15;;;;;;;8.73;1.92;;;17.60;63.70;;;;;;5084296;28;20235;-76
2022/05/03 12:05:56;;;;;;;6.97;1.83;;;17.60;64.00;;;;;;5080430;28;20227;-76
2022/05/03 12:08:24;;;;;;;3.75;1.58;;;17.40;63.20;;;;;;5080873;28;20238;-76
2022/05/03 12:10:52;;;;;;;4.13;1.67;;;17.20;62.50;;;;;;5083148;28;20227;-77
2022/05/03 12:13:28;;;;;;;4.43;1.95;;;17.10;62.80;;;;;;5075821;28;20235;-76
2022/05/03 12:16:17;;;;;;;6.27;1.90;;;16.90;63.70;;;;;;5081645;28;20253;-76
2022/05/03 12:18:48;;;;;;;6.22;1.90;;;16.80;64.40;;;;;;5081130;28;20225;-77
2022/05/03 12:21:16;;;;;;;6.60;2.20;;;16.90;64.90;;;;;;5074638;28;20258;-77
2022/05/03 12:23:45;;;;;;;6.28;1.98;;;17.10;64.90;;;;;;5074155;28;20239;-77
2022/05/03 12:26:25;;;;;;;5.10;1.70;;;17.30;64.20;;;;;;5078285;28;20648;-77
2022/05/03 12:28:54;;;;;;;7.93;1.98;;;17.60;63.90;;;;;;5081864;28;20218;-77
2022/05/03 12:31:22;;;;;;;4.65;1.80;;;17.90;63.80;;;;;;5078386;28;20230;-76
2022/05/03 12:33:53;;;;;;;6.97;2.30;;;18.20;62.70;;;;;;5079472;28;20223;-77
2022/05/03 12:36:34;;;;;;;5.70;1.60;;;18.40;61.80;;;;;;5076092;28;20918;-76
2022/05/03 12:39:13;;;;;;;5.05;1.85;;;18.60;61.30;;;;;;5080591;28;20232;-77
2022/05/03 12:41:42;;;;;;;6.40;2.05;;;18.80;60.40;;;;;;5077150;28;20230;-77
2022/05/03 12:44:11;;;;;;;4.75;1.73;;;19.00;60.50;;;;;;5077403;28;20231;-77
2022/05/03 12:46:38;;;;;;;5.65;1.92;;;19.10;60.00;;;;;;5082337;28;20242;-79
2022/05/03 12:49:11;;;;;;;5.30;1.58;;;19.30;59.80;;;;;;5078309;28;20222;-79
2022/05/03 12:51:39;;;;;;;4.72;1.48;;;19.40;58.80;;;;;;5079741;28;20742;-79
2022/05/03 12:54:07;;;;;;;6.65;1.88;;;19.60;59.10;;;;;;5074016;28;20226;-79
2022/05/03 12:59:22;;;;;;;3.33;1.65;;;19.70;58.00;;;;;;5080618;28;20351;-79
2022/05/03 13:01:50;;;;;;;5.75;2.03;;;19.70;57.30;;;;;;5081147;28;20234;-79
2022/05/03 13:04:17;;;;;;;4.20;1.90;;;19.70;57.10;;;;;;5079628;28;20608;-79
2022/05/03 13:06:44;;;;;;;7.20;1.98;;;19.60;56.90;;;;;;5084728;28;20237;-79
2022/05/03 13:09:10;;;;;;;4.57;2.03;;;19.60;57.40;;;;;;5083960;28;21661;-79
2022/05/03 13:11:38;;;;;;;5.13;1.85;;;19.50;57.50;;;;;;5084303;28;20227;-79
2022/05/03 13:14:05;;;;;;;5.03;2.17;;;19.60;57.40;;;;;;5084346;28;20276;-80
2022/05/03 13:16:33;;;;;;;5.47;2.10;;;19.60;57.30;;;;;;5082336;28;20663;-80
2022/05/03 13:19:00;;;;;;;5.68;1.90;;;19.70;56.50;;;;;;5083718;28;20243;-80
2022/05/03 13:21:27;;;;;;;3.88;1.70;;;19.70;56.20;;;;;;5084175;28;20256;-79
2022/05/03 13:23:54;;;;;;;9.20;1.80;;;19.80;56.10;;;;;;5083780;28;20227;-79
2022/05/03 13:26:21;;;;;;;3.88;1.90;;;19.70;56.10;;;;;;5084195;28;20238;-79
2022/05/03 13:28:48;;;;;;;5.78;1.70;;;19.70;55.80;;;;;;5080108;28;20223;-79
2022/05/03 13:31:15;;;;;;;4.70;1.80;;;19.60;55.90;;;;;;5074402;28;20544;-79
2022/05/03 13:33:43;;;;;;;3.58;1.60;;;19.50;55.70;;;;;;5080707;28;20231;-79
2022/05/03 13:41:38;;;;;;;4.65;1.58;;;19.40;55.20;;;;;;5081274;28;20229;-79
2022/05/03 13:44:05;;;;;;;5.28;2.00;;;19.40;54.90;;;;;;5081645;28;20249;-80
2022/05/03 13:46:32;;;;;;;6.47;1.88;;;19.30;54.80;;;;;;5081327;28;20250;-79
2022/05/03 13:49:00;;;;;;;5.13;1.73;;;19.30;55.00;;;;;;5083978;28;20227;-79
2022/05/03 13:51:27;;;;;;;9.85;2.60;;;19.20;54.70;;;;;;5081220;28;20296;-79
2022/05/03 13:53:54;;;;;;;6.95;1.90;;;19.10;54.50;;;;;;5080858;28;20214;-79